This is the latest recevied weather packets stored in our database for station/object KE8WMS. If no packets are shown the sender has not sent any weather packets the latest 10 day(s).
| Time | Temp. | Humidity | Pressure | Rain* | Wind** | Luminosity | Snow |
|---|---|---|---|---|---|---|---|
| 1787697202 | 22.22° C | 70% | 1014.1 hPa | 0 mm | - | 78 W/m² | - |
| 1787696898 | 22.78° C | 69% | 1014.3 hPa | 0 mm | - | 87 W/m² | - |
| 1787696594 | 22.78° C | 69% | 1014.3 hPa | 0 mm | - | 97 W/m² | - |
| 1787696289 | 22.78° C | 70% | 1014.3 hPa | 0 mm | - | 109 W/m² | - |
| 1787695989 | 22.78° C | 69% | 1014.5 hPa | 0 mm | - | 109 W/m² | - |
| 1787695683 | 22.78° C | 72% | 1014.4 hPa | 0 mm | - | 101 W/m² | - |
| 1787695380 | 22.78° C | 70% | 1014.4 hPa | 0 mm | - | 96 W/m² | - |
| 1787695080 | 23.33° C | 69% | 1014.8 hPa | 0 mm | - | 95 W/m² | - |
| 1787694777 | 23.33° C | 72% | 1014.6 hPa | 0 mm | - | 105 W/m² | - |
| 1787694475 | 23.33° C | 70% | 1014.7 hPa | 0 mm | - | 276 W/m² | - |
| 1787694174 | 22.78° C | 70% | 1014.7 hPa | 0 mm | - | 262 W/m² | - |
| 1787693869 | 22.78° C | 69% | 1014.8 hPa | 0 mm | - | 239 W/m² | - |
| 1787693565 | 22.78° C | 70% | 1014.7 hPa | 0 mm | - | 224 W/m² | - |
| 1787693262 | 22.78° C | 70% | 1014.5 hPa | 0 mm | - | 189 W/m² | - |
| 1787692957 | 22.78° C | 70% | 1014.5 hPa | 0 mm | - | 227 W/m² | - |
| 1787692652 | 22.78° C | 69% | 1014.8 hPa | 0 mm | - | 241 W/m² | - |
| 1787692348 | 23.33° C | 68% | 1014.6 hPa | 0 mm | - | 240 W/m² | - |
| 1787692042 | 23.33° C | 68% | 1014.7 hPa | 0 mm | - | 315 W/m² | - |
| 1787691742 | 23.33° C | 71% | 1014.9 hPa | 0 mm | - | 373 W/m² | - |
| 1787691440 | 22.78° C | 69% | 1015.1 hPa | 0 mm | - | 382 W/m² | - |
| 1787691139 | 23.33° C | 71% | 1014.7 hPa | 0 mm | - | 344 W/m² | - |
| 1787690835 | 22.78° C | 69% | 1015 hPa | 0 mm | - | 393 W/m² | - |
| 1787690535 | 22.78° C | 69% | 1015.1 hPa | 0 mm | - | 380 W/m² | - |
| 1787690231 | 23.33° C | 69% | 1015.2 hPa | 0 mm | - | 342 W/m² | - |
| 1787689928 | 23.33° C | 70% | 1015 hPa | 0 mm | - | 418 W/m² | - |
* Rain latest hour (hover to see other rain measurements)
** Current wind speed in m/s (hover to see current wind gust speed)